• Join FlightAware (Why Join?)
  • Login
  • US Flag 
09:17PM EDT


 

Airport Tracker/Info


-or-


 

Live Flight TrackerFlight Track Log ✈ VNR131 ✈ 21-Apr-2012 ✈ KTEB - KSYR

Flight Track Log - Related Links

Times and Time Zones

All times are in EDT time to prevent confusion due to time zone crossing. See the VNR131 flight status page for this flight to view local times or setup timezone preferences in your user account.

Time Position Orientation Groundspeed Altitude Reporting Facility
EDT Latitude Longitude Course Direction KTS MPH feet Rate Location/Type
06:11PM 40.8333 -74.1000 252° West 163 188 1,100  Level New York TRACON
06:12PM 40.8167 -74.1667 288° West 192 221 1,700 1,260 Climbing New York TRACON
06:13PM 40.8333 -74.2333 270° West 205 236 3,700 1,860 Climbing New York TRACON
06:14PM 40.8333 -74.3167 328° Northwest 205 236 5,500 1,680 Climbing New York TRACON
06:16PM 40.9350 -74.3994 342° North 213 245 9,400 1,560 Climbing New York Center
06:17PM 40.9925 -74.4244 348° North 231 266 10,800 1,020 Climbing New York Center
06:18PM 41.0669 -74.4450 351° North 236 272 11,500 540 Climbing New York Center
06:19PM 41.1353 -74.4597 341° North 263 303 11,900 300 Climbing New York Center
06:20PM 41.2172 -74.4975 340° North 283 326 12,200  Climbing New York Center
06:21PM 41.2831 -74.5286 340° North 278 320 11,900 -180 Descending New York Center
06:22PM 41.3631 -74.5664 329° Northwest 283 326 11,900  Level New York Center
06:23PM 41.4178 -74.6108 303° West 263 303 11,900  Level New York Center
06:24PM 41.4608 -74.6992 304° West 246 283 11,900 1,020 Level New York Center
06:25PM 41.4978 -74.7733 304° West 270 311 14,000 960 Climbing New York Center
06:26PM 41.5406 -74.8592 312° West 265 305 13,900 840 Descending New York Center
06:27PM 41.5922 -74.9369 330° Northwest 270 311 15,700 720 Climbing New York Center
06:29PM 41.7100 -75.0292 329° Northwest 288 331 15,900  Climbing Boston Center
06:30PM 41.7797 -75.0850 328° Northwest 309 356 15,800  Descending Boston Center
06:31PM 41.8533 -75.1467 329° Northwest 315 362 15,900  Climbing Boston Center
06:32PM 41.9308 -75.2083 328° Northwest 315 362 15,900  Level Boston Center
06:33PM 42.0086 -75.2733 329° Northwest 315 362 15,900  Level Boston Center
06:34PM 42.0822 -75.3328 334° Northwest 315 362 16,000  Climbing Boston Center
06:35PM 42.1478 -75.3750 332° Northwest 297 342 16,000  Level Boston Center
06:36PM 42.2153 -75.4231 331° Northwest 276 318 16,000  Level Boston Center
06:37PM 42.2744 -75.4678 334° Northwest 298 343 16,100 -180 Climbing Boston Center
06:38PM 42.3647 -75.5283 332° Northwest 291 335 15,700 -540 Descending Boston Center
06:39PM 42.4361 -75.5797 332° Northwest 296 341 14,900 -900 Descending Boston Center
06:40PM 42.5078 -75.6314 339° North 296 341 13,900 540 Descending Boston Center
06:41PM 42.5858 -75.6719 340° North 296 341 16,000 -1,920 Climbing Boston Center
06:42PM 42.6681 -75.7131 337° Northwest 301 346 10,100 -3,900 Descending Boston Center
06:43PM 42.7644 -75.7692 340° North 288 331 7,500 -1,980 Descending Boston Center
06:44PM 42.8158 -75.7944 342° North 294 338 6,200 -1,620 Descending Boston Center
06:45PM 42.8981 -75.8300 350° North 245 282 4,300 -1,020 Descending Boston Center
06:46PM 42.9581 -75.8447 348° North 226 260 4,100 -660 Descending Boston Center
06:47PM 43.0078 -75.8589 345° North 223 257 3,200 -480 Descending Boston Center
06:48PM 43.0614 -75.8789 341° North 203 234 3,200  Level Boston Center
06:49PM 43.1106 -75.9017 278° West 198 228 3,200 -360 Level Boston Center
06:50PM 43.1169 -75.9647 264° West 153 176 2,500 -780 Descending Boston Center
06:51PM 43.1133 -76.0156 268° West 139 160 1,700 -780 Descending Boston Center
06:52PM 43.1117 -76.0725 269° West 124 143 900 -780 Descending Boston Center
07:00PM 43.0983 -76.8407 90° East  Level Estimated
07:01PM 43.1000 -76.1000 338° Northwest  Level FlightAware Approximate
07:02PM 43.1676 -76.1382 158° South  Level Estimated
07:03PM 43.1000 -76.1000 338° Northwest  Level FlightAware Approximate
07:04PM 43.1676 -76.1382 338° Northwest  Level Estimated